Polk Army Air Field Fort Polk US
ICAO: KPOE
IATA: POE
Category: Medium
Scheduled Services: No

Elevation: 330 ft
TransAlt. 18000 ft.

Airport Communications:
APP/DEP:123.7
ATIS:134.85
FLT FOLLOWING:123.7
GND:121.8
RANGE CON:40.95
MEDEVAC OPS:42.5
POE OPS:36.05
PMSV METRO:135
TWR:41.5

KPOE Zoom In..

If Map Doesn't Load, Click Here

Runways:

(A) RW 16 length 4109 ft width 125 ft
---- / hdg 158

(B) RW 34 length 4109 ft width 125 ft
---- / hdg 338

Location; KPOE
Day. 21 / Time. 12.58 Zulu
* Altimeter: 30.02
* Temperature: 25° c. 77°f.
* Wind from: 160° Speed 03 kn.
Dewpoint: 24° c.
Visibility: 9 Statute Miles.
Clouds: Overcast 15000 ft.

KPOE 211258Z AUTO 16003KT 9SM OVC150 25/24 A3002 RMK AO2 SLP164 T02480236


Wind From 160°
Speed 03 kn.

 
 
jpsmedia.com for Web Design worldairports.se 2018   terms of use